sensor_id;sensor_type;location;lat;lon;timestamp;temperature;humidity
79698;SHT31;69168;42.708;23.286;2024-01-30T00:01:50;1.13;62.20
79698;SHT31;69168;42.708;23.286;2024-01-30T00:04:15;1.01;62.21
79698;SHT31;69168;42.708;23.286;2024-01-30T00:06:42;1.11;62.50
79698;SHT31;69168;42.708;23.286;2024-01-30T00:09:08;0.96;62.78
79698;SHT31;69168;42.708;23.286;2024-01-30T00:11:34;0.95;62.45
79698;SHT31;69168;42.708;23.286;2024-01-30T00:14:00;0.96;62.80
79698;SHT31;69168;42.708;23.286;2024-01-30T00:16:25;0.88;62.96
79698;SHT31;69168;42.708;23.286;2024-01-30T00:18:51;0.95;62.94
79698;SHT31;69168;42.708;23.286;2024-01-30T00:21:18;0.94;63.16
79698;SHT31;69168;42.708;23.286;2024-01-30T00:23:43;0.91;63.51
79698;SHT31;69168;42.708;23.286;2024-01-30T00:26:09;0.87;62.94
79698;SHT31;69168;42.708;23.286;2024-01-30T00:28:35;0.95;62.71
79698;SHT31;69168;42.708;23.286;2024-01-30T00:31:00;0.98;62.88
79698;SHT31;69168;42.708;23.286;2024-01-30T00:33:26;0.81;63.02
79698;SHT31;69168;42.708;23.286;2024-01-30T00:35:52;0.77;63.26
79698;SHT31;69168;42.708;23.286;2024-01-30T00:38:17;0.71;63.44
79698;SHT31;69168;42.708;23.286;2024-01-30T00:40:43;0.74;63.54
79698;SHT31;69168;42.708;23.286;2024-01-30T00:43:08;0.66;63.56
79698;SHT31;69168;42.708;23.286;2024-01-30T00:45:34;0.64;63.86
79698;SHT31;69168;42.708;23.286;2024-01-30T00:48:00;0.64;63.63
79698;SHT31;69168;42.708;23.286;2024-01-30T00:50:25;0.58;63.78
79698;SHT31;69168;42.708;23.286;2024-01-30T00:52:51;0.63;64.11
79698;SHT31;69168;42.708;23.286;2024-01-30T00:55:16;0.70;64.07
79698;SHT31;69168;42.708;23.286;2024-01-30T00:57:42;0.73;64.30
79698;SHT31;69168;42.708;23.286;2024-01-30T01:00:08;0.71;64.42
79698;SHT31;69168;42.708;23.286;2024-01-30T01:02:37;0.73;63.84
79698;SHT31;69168;42.708;23.286;2024-01-30T01:05:04;0.75;64.58
79698;SHT31;69168;42.708;23.286;2024-01-30T01:07:30;0.68;64.00
79698;SHT31;69168;42.708;23.286;2024-01-30T01:09:56;0.67;64.25
79698;SHT31;69168;42.708;23.286;2024-01-30T01:12:21;0.74;64.70
79698;SHT31;69168;42.708;23.286;2024-01-30T01:14:47;0.70;64.32
79698;SHT31;69168;42.708;23.286;2024-01-30T01:17:12;0.70;64.06
79698;SHT31;69168;42.708;23.286;2024-01-30T01:19:38;0.71;64.54
79698;SHT31;69168;42.708;23.286;2024-01-30T01:22:03;0.71;64.60
79698;SHT31;69168;42.708;23.286;2024-01-30T01:24:32;0.73;64.29
79698;SHT31;69168;42.708;23.286;2024-01-30T01:27:00;0.68;64.27
79698;SHT31;69168;42.708;23.286;2024-01-30T01:29:26;0.74;64.37
79698;SHT31;69168;42.708;23.286;2024-01-30T01:31:57;0.70;63.90
79698;SHT31;69168;42.708;23.286;2024-01-30T01:34:23;0.66;64.07
79698;SHT31;69168;42.708;23.286;2024-01-30T01:36:52;0.60;64.04
79698;SHT31;69168;42.708;23.286;2024-01-30T01:39:20;0.64;64.04
79698;SHT31;69168;42.708;23.286;2024-01-30T01:41:46;0.64;63.62
79698;SHT31;69168;42.708;23.286;2024-01-30T01:44:12;0.70;63.98
79698;SHT31;69168;42.708;23.286;2024-01-30T01:46:37;0.63;63.21
79698;SHT31;69168;42.708;23.286;2024-01-30T01:49:04;0.58;63.42
79698;SHT31;69168;42.708;23.286;2024-01-30T01:51:32;0.56;63.55
79698;SHT31;69168;42.708;23.286;2024-01-30T01:54:01;0.57;63.60
79698;SHT31;69168;42.708;23.286;2024-01-30T01:56:28;0.58;63.51
79698;SHT31;69168;42.708;23.286;2024-01-30T01:58:55;0.64;63.43
79698;SHT31;69168;42.708;23.286;2024-01-30T02:01:21;0.61;63.12
79698;SHT31;69168;42.708;23.286;2024-01-30T02:03:47;0.60;63.26
79698;SHT31;69168;42.708;23.286;2024-01-30T02:06:16;0.63;62.56
79698;SHT31;69168;42.708;23.286;2024-01-30T02:08:41;0.67;62.16
79698;SHT31;69168;42.708;23.286;2024-01-30T02:11:07;0.63;62.54
79698;SHT31;69168;42.708;23.286;2024-01-30T02:13:33;0.67;62.46
79698;SHT31;69168;42.708;23.286;2024-01-30T02:16:00;0.67;62.68
79698;SHT31;69168;42.708;23.286;2024-01-30T02:18:26;0.64;63.04
79698;SHT31;69168;42.708;23.286;2024-01-30T02:20:53;0.61;62.57
79698;SHT31;69168;42.708;23.286;2024-01-30T02:23:20;0.64;62.80
79698;SHT31;69168;42.708;23.286;2024-01-30T02:25:45;0.67;62.51
79698;SHT31;69168;42.708;23.286;2024-01-30T02:28:14;0.68;62.49
79698;SHT31;69168;42.708;23.286;2024-01-30T02:30:42;0.75;62.88
79698;SHT31;69168;42.708;23.286;2024-01-30T02:33:07;0.70;62.18
79698;SHT31;69168;42.708;23.286;2024-01-30T02:35:33;0.77;62.56
79698;SHT31;69168;42.708;23.286;2024-01-30T02:37:59;0.75;62.45
79698;SHT31;69168;42.708;23.286;2024-01-30T02:40:25;0.80;62.12
79698;SHT31;69168;42.708;23.286;2024-01-30T02:42:50;0.83;62.60
79698;SHT31;69168;42.708;23.286;2024-01-30T02:45:16;0.78;62.34
79698;SHT31;69168;42.708;23.286;2024-01-30T02:47:42;0.77;62.37
79698;SHT31;69168;42.708;23.286;2024-01-30T02:50:08;0.70;61.86
79698;SHT31;69168;42.708;23.286;2024-01-30T02:52:33;0.83;61.06
79698;SHT31;69168;42.708;23.286;2024-01-30T02:54:59;0.75;62.26
79698;SHT31;69168;42.708;23.286;2024-01-30T02:57:25;0.85;61.84
79698;SHT31;69168;42.708;23.286;2024-01-30T02:59:51;0.91;61.21
79698;SHT31;69168;42.708;23.286;2024-01-30T03:02:17;0.84;61.32
79698;SHT31;69168;42.708;23.286;2024-01-30T03:04:42;0.91;60.88
79698;SHT31;69168;42.708;23.286;2024-01-30T03:07:08;0.96;61.48
79698;SHT31;69168;42.708;23.286;2024-01-30T03:09:34;0.89;61.46
79698;SHT31;69168;42.708;23.286;2024-01-30T03:12:00;0.95;61.16
79698;SHT31;69168;42.708;23.286;2024-01-30T03:14:26;0.94;60.58
79698;SHT31;69168;42.708;23.286;2024-01-30T03:16:51;0.92;61.16
79698;SHT31;69168;42.708;23.286;2024-01-30T03:19:17;0.98;60.60
79698;SHT31;69168;42.708;23.286;2024-01-30T03:21:44;0.95;60.11
79698;SHT31;69168;42.708;23.286;2024-01-30T03:24:09;1.01;59.54
79698;SHT31;69168;42.708;23.286;2024-01-30T03:26:35;0.98;60.45
79698;SHT31;69168;42.708;23.286;2024-01-30T03:29:00;0.91;60.38
79698;SHT31;69168;42.708;23.286;2024-01-30T03:31:26;0.99;60.60
79698;SHT31;69168;42.708;23.286;2024-01-30T03:33:52;0.99;60.70
79698;SHT31;69168;42.708;23.286;2024-01-30T03:36:18;0.95;60.39
79698;SHT31;69168;42.708;23.286;2024-01-30T03:38:43;0.84;60.11
79698;SHT31;69168;42.708;23.286;2024-01-30T03:41:09;0.89;59.95
79698;SHT31;69168;42.708;23.286;2024-01-30T03:43:35;0.94;60.00
79698;SHT31;69168;42.708;23.286;2024-01-30T03:46:02;0.87;59.87
79698;SHT31;69168;42.708;23.286;2024-01-30T03:48:28;0.87;59.29
79698;SHT31;69168;42.708;23.286;2024-01-30T03:50:54;0.85;59.65
79698;SHT31;69168;42.708;23.286;2024-01-30T03:53:20;0.80;59.41
79698;SHT31;69168;42.708;23.286;2024-01-30T03:55:45;0.87;59.01
79698;SHT31;69168;42.708;23.286;2024-01-30T03:58:11;0.87;59.45
79698;SHT31;69168;42.708;23.286;2024-01-30T04:00:36;0.89;59.45
79698;SHT31;69168;42.708;23.286;2024-01-30T04:03:02;0.98;58.81
79698;SHT31;69168;42.708;23.286;2024-01-30T04:05:28;0.89;59.27
79698;SHT31;69168;42.708;23.286;2024-01-30T04:07:53;0.92;58.78
79698;SHT31;69168;42.708;23.286;2024-01-30T04:10:19;0.99;58.58
79698;SHT31;69168;42.708;23.286;2024-01-30T04:12:44;0.87;59.00
79698;SHT31;69168;42.708;23.286;2024-01-30T04:15:10;0.78;59.63
79698;SHT31;69168;42.708;23.286;2024-01-30T04:17:35;0.71;60.36
79698;SHT31;69168;42.708;23.286;2024-01-30T04:20:01;0.74;59.73
79698;SHT31;69168;42.708;23.286;2024-01-30T04:22:27;0.78;59.23
79698;SHT31;69168;42.708;23.286;2024-01-30T04:24:52;0.64;59.84
79698;SHT31;69168;42.708;23.286;2024-01-30T04:27:18;0.61;60.30
79698;SHT31;69168;42.708;23.286;2024-01-30T04:29:43;0.57;60.58
79698;SHT31;69168;42.708;23.286;2024-01-30T04:32:09;0.58;60.93
79698;SHT31;69168;42.708;23.286;2024-01-30T04:34:36;0.60;61.12
79698;SHT31;69168;42.708;23.286;2024-01-30T04:37:02;0.60;60.72
79698;SHT31;69168;42.708;23.286;2024-01-30T04:39:27;0.60;60.92
79698;SHT31;69168;42.708;23.286;2024-01-30T04:41:53;0.61;61.15
79698;SHT31;69168;42.708;23.286;2024-01-30T04:44:18;0.52;60.89
79698;SHT31;69168;42.708;23.286;2024-01-30T04:46:44;0.58;61.11
79698;SHT31;69168;42.708;23.286;2024-01-30T04:49:10;0.54;61.33
79698;SHT31;69168;42.708;23.286;2024-01-30T04:51:36;0.58;60.86
79698;SHT31;69168;42.708;23.286;2024-01-30T04:54:01;0.57;61.16
79698;SHT31;69168;42.708;23.286;2024-01-30T04:56:27;0.58;61.27
79698;SHT31;69168;42.708;23.286;2024-01-30T04:58:53;0.63;61.09
79698;SHT31;69168;42.708;23.286;2024-01-30T05:01:24;0.50;61.08
79698;SHT31;69168;42.708;23.286;2024-01-30T05:03:52;0.54;61.21
79698;SHT31;69168;42.708;23.286;2024-01-30T05:06:24;0.54;60.81
79698;SHT31;69168;42.708;23.286;2024-01-30T05:08:50;0.63;60.52
79698;SHT31;69168;42.708;23.286;2024-01-30T05:11:16;0.53;60.98
79698;SHT31;69168;42.708;23.286;2024-01-30T05:13:41;0.57;60.48
79698;SHT31;69168;42.708;23.286;2024-01-30T05:16:07;0.49;60.54
79698;SHT31;69168;42.708;23.286;2024-01-30T05:18:32;0.56;60.72
79698;SHT31;69168;42.708;23.286;2024-01-30T05:20:58;0.46;61.14
79698;SHT31;69168;42.708;23.286;2024-01-30T05:23:24;0.30;61.07
79698;SHT31;69168;42.708;23.286;2024-01-30T05:25:50;0.39;61.04
79698;SHT31;69168;42.708;23.286;2024-01-30T05:28:19;0.33;61.23
79698;SHT31;69168;42.708;23.286;2024-01-30T05:30:44;0.33;61.27
79698;SHT31;69168;42.708;23.286;2024-01-30T05:33:10;0.35;61.30
79698;SHT31;69168;42.708;23.286;2024-01-30T05:35:40;0.26;61.22
79698;SHT31;69168;42.708;23.286;2024-01-30T05:38:06;0.33;60.99
79698;SHT31;69168;42.708;23.286;2024-01-30T05:40:31;0.30;61.25
79698;SHT31;69168;42.708;23.286;2024-01-30T05:42:57;0.26;61.36
79698;SHT31;69168;42.708;23.286;2024-01-30T05:45:26;0.25;61.61
79698;SHT31;69168;42.708;23.286;2024-01-30T05:47:52;0.19;61.71
79698;SHT31;69168;42.708;23.286;2024-01-30T05:50:19;0.16;62.40
79698;SHT31;69168;42.708;23.286;2024-01-30T05:52:45;0.19;62.07
79698;SHT31;69168;42.708;23.286;2024-01-30T05:55:12;0.22;61.51
79698;SHT31;69168;42.708;23.286;2024-01-30T05:57:40;0.15;61.28
79698;SHT31;69168;42.708;23.286;2024-01-30T06:00:07;0.19;60.95
79698;SHT31;69168;42.708;23.286;2024-01-30T06:02:33;0.18;60.84
79698;SHT31;69168;42.708;23.286;2024-01-30T06:04:59;0.13;60.65
79698;SHT31;69168;42.708;23.286;2024-01-30T06:07:25;0.18;61.02
79698;SHT31;69168;42.708;23.286;2024-01-30T06:09:50;0.16;60.72
79698;SHT31;69168;42.708;23.286;2024-01-30T06:12:19;0.11;60.38
79698;SHT31;69168;42.708;23.286;2024-01-30T06:14:45;0.03;59.83
79698;SHT31;69168;42.708;23.286;2024-01-30T06:17:12;0.16;59.98
79698;SHT31;69168;42.708;23.286;2024-01-30T06:19:39;0.23;59.79
79698;SHT31;69168;42.708;23.286;2024-01-30T06:22:05;0.20;59.74
79698;SHT31;69168;42.708;23.286;2024-01-30T06:24:30;0.32;59.73
79698;SHT31;69168;42.708;23.286;2024-01-30T06:26:56;0.26;59.62
79698;SHT31;69168;42.708;23.286;2024-01-30T06:29:21;0.32;59.93
79698;SHT31;69168;42.708;23.286;2024-01-30T06:31:48;0.35;59.98
79698;SHT31;69168;42.708;23.286;2024-01-30T06:34:14;0.35;59.89
79698;SHT31;69168;42.708;23.286;2024-01-30T06:36:39;0.36;60.12
79698;SHT31;69168;42.708;23.286;2024-01-30T06:39:05;0.30;59.70
79698;SHT31;69168;42.708;23.286;2024-01-30T06:41:31;0.43;59.19
79698;SHT31;69168;42.708;23.286;2024-01-30T06:43:56;0.42;59.72
79698;SHT31;69168;42.708;23.286;2024-01-30T06:46:22;0.40;59.42
79698;SHT31;69168;42.708;23.286;2024-01-30T06:48:47;0.45;59.35
79698;SHT31;69168;42.708;23.286;2024-01-30T06:51:13;0.45;59.36
79698;SHT31;69168;42.708;23.286;2024-01-30T06:53:39;0.45;59.19
79698;SHT31;69168;42.708;23.286;2024-01-30T06:56:05;0.45;58.97
79698;SHT31;69168;42.708;23.286;2024-01-30T06:58:31;0.54;59.38
79698;SHT31;69168;42.708;23.286;2024-01-30T07:00:58;0.60;58.29
79698;SHT31;69168;42.708;23.286;2024-01-30T07:03:25;0.68;58.45
79698;SHT31;69168;42.708;23.286;2024-01-30T07:05:53;0.71;58.78
79698;SHT31;69168;42.708;23.286;2024-01-30T07:08:19;0.74;57.63
79698;SHT31;69168;42.708;23.286;2024-01-30T07:10:44;0.71;58.35
79698;SHT31;69168;42.708;23.286;2024-01-30T07:13:11;0.83;58.22
79698;SHT31;69168;42.708;23.286;2024-01-30T07:15:36;0.94;57.49
79698;SHT31;69168;42.708;23.286;2024-01-30T07:18:03;0.98;57.87
79698;SHT31;69168;42.708;23.286;2024-01-30T07:20:33;0.99;57.79
79698;SHT31;69168;42.708;23.286;2024-01-30T07:22:58;0.85;57.67
79698;SHT31;69168;42.708;23.286;2024-01-30T07:25:24;0.99;57.49
79698;SHT31;69168;42.708;23.286;2024-01-30T07:27:56;0.94;57.78
79698;SHT31;69168;42.708;23.286;2024-01-30T07:30:21;1.01;57.68
79698;SHT31;69168;42.708;23.286;2024-01-30T07:32:48;1.02;57.26
79698;SHT31;69168;42.708;23.286;2024-01-30T07:35:14;1.02;56.71
79698;SHT31;69168;42.708;23.286;2024-01-30T07:37:42;1.09;56.90
79698;SHT31;69168;42.708;23.286;2024-01-30T07:40:08;1.28;56.22
79698;SHT31;69168;42.708;23.286;2024-01-30T07:42:34;1.40;55.83
79698;SHT31;69168;42.708;23.286;2024-01-30T07:45:02;1.56;54.67
79698;SHT31;69168;42.708;23.286;2024-01-30T07:47:28;1.46;55.09
79698;SHT31;69168;42.708;23.286;2024-01-30T07:49:54;1.43;54.91
79698;SHT31;69168;42.708;23.286;2024-01-30T07:52:19;1.49;55.15
79698;SHT31;69168;42.708;23.286;2024-01-30T07:54:45;1.63;54.96
79698;SHT31;69168;42.708;23.286;2024-01-30T07:57:10;1.50;55.45
79698;SHT31;69168;42.708;23.286;2024-01-30T07:59:36;1.40;55.38
79698;SHT31;69168;42.708;23.286;2024-01-30T08:02:01;1.51;54.54
79698;SHT31;69168;42.708;23.286;2024-01-30T08:04:27;1.73;53.75
79698;SHT31;69168;42.708;23.286;2024-01-30T08:06:52;1.67;54.00
79698;SHT31;69168;42.708;23.286;2024-01-30T08:09:18;1.71;54.04
79698;SHT31;69168;42.708;23.286;2024-01-30T08:11:43;1.79;53.33
79698;SHT31;69168;42.708;23.286;2024-01-30T08:14:09;1.59;53.74
79698;SHT31;69168;42.708;23.286;2024-01-30T08:16:38;1.59;54.61
79698;SHT31;69168;42.708;23.286;2024-01-30T08:19:03;1.51;55.07
79698;SHT31;69168;42.708;23.286;2024-01-30T08:21:29;1.61;54.92
79698;SHT31;69168;42.708;23.286;2024-01-30T08:23:54;1.63;54.97
79698;SHT31;69168;42.708;23.286;2024-01-30T08:26:20;1.71;53.89
79698;SHT31;69168;42.708;23.286;2024-01-30T08:28:46;1.70;53.77
79698;SHT31;69168;42.708;23.286;2024-01-30T08:31:12;1.78;54.06
79698;SHT31;69168;42.708;23.286;2024-01-30T08:33:37;1.68;53.91
79698;SHT31;69168;42.708;23.286;2024-01-30T08:36:03;1.66;54.51
79698;SHT31;69168;42.708;23.286;2024-01-30T08:38:28;1.84;54.53
79698;SHT31;69168;42.708;23.286;2024-01-30T08:40:55;1.95;54.10
79698;SHT31;69168;42.708;23.286;2024-01-30T08:43:20;1.99;53.94
79698;SHT31;69168;42.708;23.286;2024-01-30T08:45:46;2.08;53.91
79698;SHT31;69168;42.708;23.286;2024-01-30T08:48:12;2.19;53.78
79698;SHT31;69168;42.708;23.286;2024-01-30T08:50:37;2.34;53.52
79698;SHT31;69168;42.708;23.286;2024-01-30T08:53:04;2.44;53.90
79698;SHT31;69168;42.708;23.286;2024-01-30T08:55:29;2.51;53.75
79698;SHT31;69168;42.708;23.286;2024-01-30T08:57:55;2.60;53.58
79698;SHT31;69168;42.708;23.286;2024-01-30T09:00:20;2.88;52.73
79698;SHT31;69168;42.708;23.286;2024-01-30T09:02:46;2.78;53.47
79698;SHT31;69168;42.708;23.286;2024-01-30T09:05:11;2.97;52.94
79698;SHT31;69168;42.708;23.286;2024-01-30T09:07:37;2.87;53.32
79698;SHT31;69168;42.708;23.286;2024-01-30T09:10:03;2.95;53.04
79698;SHT31;69168;42.708;23.286;2024-01-30T09:12:29;2.95;53.13
79698;SHT31;69168;42.708;23.286;2024-01-30T09:14:55;2.89;53.14
79698;SHT31;69168;42.708;23.286;2024-01-30T09:17:20;2.87;53.46
79698;SHT31;69168;42.708;23.286;2024-01-30T09:19:46;2.94;53.47
79698;SHT31;69168;42.708;23.286;2024-01-30T09:22:11;2.98;53.78
79698;SHT31;69168;42.708;23.286;2024-01-30T09:24:37;3.09;53.40
79698;SHT31;69168;42.708;23.286;2024-01-30T09:27:03;3.05;53.46
79698;SHT31;69168;42.708;23.286;2024-01-30T09:29:28;3.18;53.64
79698;SHT31;69168;42.708;23.286;2024-01-30T09:31:54;3.46;52.66
79698;SHT31;69168;42.708;23.286;2024-01-30T09:34:19;3.49;52.09
79698;SHT31;69168;42.708;23.286;2024-01-30T09:36:45;3.61;52.42
79698;SHT31;69168;42.708;23.286;2024-01-30T09:39:11;3.92;50.37
79698;SHT31;69168;42.708;23.286;2024-01-30T09:41:48;3.77;51.19
79698;SHT31;69168;42.708;23.286;2024-01-30T09:44:16;3.78;50.90
79698;SHT31;69168;42.708;23.286;2024-01-30T09:46:42;3.90;50.36
79698;SHT31;69168;42.708;23.286;2024-01-30T09:49:09;3.95;50.51
79698;SHT31;69168;42.708;23.286;2024-01-30T09:51:37;3.95;50.73
79698;SHT31;69168;42.708;23.286;2024-01-30T09:54:03;3.97;49.11
79698;SHT31;69168;42.708;23.286;2024-01-30T09:56:29;3.70;49.45
79698;SHT31;69168;42.708;23.286;2024-01-30T09:58:54;3.47;50.14
79698;SHT31;69168;42.708;23.286;2024-01-30T10:01:20;3.36;50.40
79698;SHT31;69168;42.708;23.286;2024-01-30T10:03:46;3.39;50.84
79698;SHT31;69168;42.708;23.286;2024-01-30T10:06:11;3.53;51.49
79698;SHT31;69168;42.708;23.286;2024-01-30T10:08:37;4.01;50.03
79698;SHT31;69168;42.708;23.286;2024-01-30T10:11:05;4.10;49.63
79698;SHT31;69168;42.708;23.286;2024-01-30T10:13:31;4.20;49.97
79698;SHT31;69168;42.708;23.286;2024-01-30T10:15:57;4.56;49.04
79698;SHT31;69168;42.708;23.286;2024-01-30T10:18:23;4.39;48.86
79698;SHT31;69168;42.708;23.286;2024-01-30T10:20:49;4.33;48.58
79698;SHT31;69168;42.708;23.286;2024-01-30T10:23:15;4.47;48.10
79698;SHT31;69168;42.708;23.286;2024-01-30T10:25:40;4.54;48.24
79698;SHT31;69168;42.708;23.286;2024-01-30T10:28:06;4.73;47.90
79698;SHT31;69168;42.708;23.286;2024-01-30T10:30:41;4.78;47.93
79698;SHT31;69168;42.708;23.286;2024-01-30T10:33:07;4.78;47.57
79698;SHT31;69168;42.708;23.286;2024-01-30T10:35:32;4.80;46.88
79698;SHT31;69168;42.708;23.286;2024-01-30T10:38:02;4.68;46.74
79698;SHT31;69168;42.708;23.286;2024-01-30T10:40:29;4.89;47.23
79698;SHT31;69168;42.708;23.286;2024-01-30T10:42:58;5.04;45.46
79698;SHT31;69168;42.708;23.286;2024-01-30T10:45:26;5.15;46.23
79698;SHT31;69168;42.708;23.286;2024-01-30T10:47:54;5.42;45.75
79698;SHT31;69168;42.708;23.286;2024-01-30T10:50:24;5.35;46.11
79698;SHT31;69168;42.708;23.286;2024-01-30T10:52:51;5.50;45.74
79698;SHT31;69168;42.708;23.286;2024-01-30T10:55:18;5.57;45.41
79698;SHT31;69168;42.708;23.286;2024-01-30T10:57:43;5.63;44.91
79698;SHT31;69168;42.708;23.286;2024-01-30T11:00:11;5.46;44.66
79698;SHT31;69168;42.708;23.286;2024-01-30T11:02:45;5.18;45.80
79698;SHT31;69168;42.708;23.286;2024-01-30T11:05:12;5.28;46.17
79698;SHT31;69168;42.708;23.286;2024-01-30T11:07:39;5.26;47.14
79698;SHT31;69168;42.708;23.286;2024-01-30T11:10:07;5.01;46.23
79698;SHT31;69168;42.708;23.286;2024-01-30T11:12:41;4.98;46.33
79698;SHT31;69168;42.708;23.286;2024-01-30T11:15:10;5.19;47.27
79698;SHT31;69168;42.708;23.286;2024-01-30T11:17:41;5.57;46.58
79698;SHT31;69168;42.708;23.286;2024-01-30T11:20:27;5.91;44.84
79698;SHT31;69168;42.708;23.286;2024-01-30T11:22:56;5.91;45.02
79698;SHT31;69168;42.708;23.286;2024-01-30T11:25:22;5.99;44.57
79698;SHT31;69168;42.708;23.286;2024-01-30T11:27:52;6.25;43.94
79698;SHT31;69168;42.708;23.286;2024-01-30T11:30:25;6.03;43.71
79698;SHT31;69168;42.708;23.286;2024-01-30T11:33:07;6.02;44.98
79698;SHT31;69168;42.708;23.286;2024-01-30T11:35:35;6.16;44.63
79698;SHT31;69168;42.708;23.286;2024-01-30T11:38:03;5.97;43.89
79698;SHT31;69168;42.708;23.286;2024-01-30T11:40:30;6.29;44.63
79698;SHT31;69168;42.708;23.286;2024-01-30T11:42:56;6.50;45.03
79698;SHT31;69168;42.708;23.286;2024-01-30T11:45:29;6.84;43.45
79698;SHT31;69168;42.708;23.286;2024-01-30T11:47:55;7.13;42.61
79698;SHT31;69168;42.708;23.286;2024-01-30T11:50:21;6.84;42.20
79698;SHT31;69168;42.708;23.286;2024-01-30T11:52:47;6.99;42.29
79698;SHT31;69168;42.708;23.286;2024-01-30T11:55:14;7.16;41.85
79698;SHT31;69168;42.708;23.286;2024-01-30T11:57:43;7.27;42.77
79698;SHT31;69168;42.708;23.286;2024-01-30T12:00:15;7.46;41.95
79698;SHT31;69168;42.708;23.286;2024-01-30T12:02:42;7.61;42.16
79698;SHT31;69168;42.708;23.286;2024-01-30T12:05:08;7.74;40.99
79698;SHT31;69168;42.708;23.286;2024-01-30T12:07:37;7.94;41.67
79698;SHT31;69168;42.708;23.286;2024-01-30T12:10:05;7.94;41.12
79698;SHT31;69168;42.708;23.286;2024-01-30T12:12:33;8.23;40.65
79698;SHT31;69168;42.708;23.286;2024-01-30T12:14:59;8.34;39.96
79698;SHT31;69168;42.708;23.286;2024-01-30T12:17:31;8.54;39.59
79698;SHT31;69168;42.708;23.286;2024-01-30T12:20:06;8.36;39.60
79698;SHT31;69168;42.708;23.286;2024-01-30T12:22:37;8.49;40.34
79698;SHT31;69168;42.708;23.286;2024-01-30T12:25:10;8.59;39.66
79698;SHT31;69168;42.708;23.286;2024-01-30T12:27:37;8.87;38.50
79698;SHT31;69168;42.708;23.286;2024-01-30T12:30:10;8.71;39.26
79698;SHT31;69168;42.708;23.286;2024-01-30T12:32:36;9.08;38.40
79698;SHT31;69168;42.708;23.286;2024-01-30T12:35:12;9.19;39.04
79698;SHT31;69168;42.708;23.286;2024-01-30T12:37:38;8.89;38.15
79698;SHT31;69168;42.708;23.286;2024-01-30T12:40:05;8.78;38.43
79698;SHT31;69168;42.708;23.286;2024-01-30T12:42:31;8.77;38.56
79698;SHT31;69168;42.708;23.286;2024-01-30T12:44:57;8.99;38.37
79698;SHT31;69168;42.708;23.286;2024-01-30T12:47:24;9.27;37.59
79698;SHT31;69168;42.708;23.286;2024-01-30T12:49:50;9.51;36.64
79698;SHT31;69168;42.708;23.286;2024-01-30T12:52:19;9.11;37.30
79698;SHT31;69168;42.708;23.286;2024-01-30T12:54:45;9.04;37.63
79698;SHT31;69168;42.708;23.286;2024-01-30T12:57:10;9.16;37.26
79698;SHT31;69168;42.708;23.286;2024-01-30T12:59:36;9.27;38.05
79698;SHT31;69168;42.708;23.286;2024-01-30T13:02:01;9.37;37.47
79698;SHT31;69168;42.708;23.286;2024-01-30T13:04:28;9.74;36.76
79698;SHT31;69168;42.708;23.286;2024-01-30T13:06:56;9.73;36.48
79698;SHT31;69168;42.708;23.286;2024-01-30T13:09:25;9.43;36.60
79698;SHT31;69168;42.708;23.286;2024-01-30T13:11:51;9.37;37.47
79698;SHT31;69168;42.708;23.286;2024-01-30T13:14:17;9.47;37.35
79698;SHT31;69168;42.708;23.286;2024-01-30T13:16:43;9.84;37.24
79698;SHT31;69168;42.708;23.286;2024-01-30T13:19:08;9.73;36.54
79698;SHT31;69168;42.708;23.286;2024-01-30T13:21:34;9.82;36.11
79698;SHT31;69168;42.708;23.286;2024-01-30T13:23:59;9.60;36.70
79698;SHT31;69168;42.708;23.286;2024-01-30T13:26:25;9.37;36.54
79698;SHT31;69168;42.708;23.286;2024-01-30T13:28:51;9.39;37.02
79698;SHT31;69168;42.708;23.286;2024-01-30T13:31:17;9.42;37.17
79698;SHT31;69168;42.708;23.286;2024-01-30T13:33:46;9.53;37.09
79698;SHT31;69168;42.708;23.286;2024-01-30T13:36:11;9.78;36.46
79698;SHT31;69168;42.708;23.286;2024-01-30T13:38:37;9.74;36.37
79698;SHT31;69168;42.708;23.286;2024-01-30T13:41:03;9.92;36.23
79698;SHT31;69168;42.708;23.286;2024-01-30T13:43:29;10.10;36.39
79698;SHT31;69168;42.708;23.286;2024-01-30T13:45:55;10.28;35.28
79698;SHT31;69168;42.708;23.286;2024-01-30T13:48:23;9.58;36.02
79698;SHT31;69168;42.708;23.286;2024-01-30T13:50:48;9.84;36.57
79698;SHT31;69168;42.708;23.286;2024-01-30T13:53:14;9.97;35.56
79698;SHT31;69168;42.708;23.286;2024-01-30T13:55:39;9.82;35.79
79698;SHT31;69168;42.708;23.286;2024-01-30T13:58:06;9.65;37.07
79698;SHT31;69168;42.708;23.286;2024-01-30T14:00:32;9.88;36.36
79698;SHT31;69168;42.708;23.286;2024-01-30T14:02:59;9.77;36.34
79698;SHT31;69168;42.708;23.286;2024-01-30T14:05:25;9.94;36.51
79698;SHT31;69168;42.708;23.286;2024-01-30T14:07:51;9.35;37.29
79698;SHT31;69168;42.708;23.286;2024-01-30T14:10:20;9.35;37.68
79698;SHT31;69168;42.708;23.286;2024-01-30T14:12:46;9.53;37.33
79698;SHT31;69168;42.708;23.286;2024-01-30T14:15:14;9.48;37.20
79698;SHT31;69168;42.708;23.286;2024-01-30T14:17:47;9.60;36.60
79698;SHT31;69168;42.708;23.286;2024-01-30T14:20:14;9.64;36.79
79698;SHT31;69168;42.708;23.286;2024-01-30T14:22:40;9.55;36.97
79698;SHT31;69168;42.708;23.286;2024-01-30T14:25:08;9.70;36.54
79698;SHT31;69168;42.708;23.286;2024-01-30T14:27:37;9.54;36.61
79698;SHT31;69168;42.708;23.286;2024-01-30T14:30:03;9.42;37.24
79698;SHT31;69168;42.708;23.286;2024-01-30T14:32:29;9.50;36.71
79698;SHT31;69168;42.708;23.286;2024-01-30T14:34:55;9.08;37.73
79698;SHT31;69168;42.708;23.286;2024-01-30T14:37:21;8.60;39.13
79698;SHT31;69168;42.708;23.286;2024-01-30T14:39:47;8.51;38.82
79698;SHT31;69168;42.708;23.286;2024-01-30T14:42:13;8.16;39.03
79698;SHT31;69168;42.708;23.286;2024-01-30T14:44:39;8.32;38.95
79698;SHT31;69168;42.708;23.286;2024-01-30T14:47:05;8.70;38.56
79698;SHT31;69168;42.708;23.286;2024-01-30T14:49:31;8.75;38.42
79698;SHT31;69168;42.708;23.286;2024-01-30T14:51:57;8.64;38.68
79698;SHT31;69168;42.708;23.286;2024-01-30T14:54:24;8.19;39.54
79698;SHT31;69168;42.708;23.286;2024-01-30T14:56:49;8.40;38.65
79698;SHT31;69168;42.708;23.286;2024-01-30T14:59:15;8.09;39.71
79698;SHT31;69168;42.708;23.286;2024-01-30T15:01:41;8.19;39.76
79698;SHT31;69168;42.708;23.286;2024-01-30T15:04:10;7.74;40.55
79698;SHT31;69168;42.708;23.286;2024-01-30T15:06:36;7.40;40.96
79698;SHT31;69168;42.708;23.286;2024-01-30T15:09:01;7.26;41.51
79698;SHT31;69168;42.708;23.286;2024-01-30T15:11:27;7.11;41.62
79698;SHT31;69168;42.708;23.286;2024-01-30T15:13:53;6.71;42.43
79698;SHT31;69168;42.708;23.286;2024-01-30T15:16:18;6.43;43.33
79698;SHT31;69168;42.708;23.286;2024-01-30T15:18:44;6.11;43.83
79698;SHT31;69168;42.708;23.286;2024-01-30T15:21:10;6.16;43.79
79698;SHT31;69168;42.708;23.286;2024-01-30T15:23:35;5.66;44.77
79698;SHT31;69168;42.708;23.286;2024-01-30T15:26:01;5.53;45.01